Time;durP1;ratioP1;P1;durP2;ratioP2;P2;SDS_P1;SDS_P2;PMS_P1;PMS_P2;Temp;Humidity;BMP_temperature;BMP_pressure;BME280_temperature;BME280_humidity;BME280_pressure;Samples;Min_cycle;Max_cycle;Signal;HPM_P1;HPM_P2
2023/01/08 00:02:12;;;;;;;3.38;2.13;;;8.20;75.60;;;;;;4175457;28;20045;-91
2023/01/08 00:04:33;;;;;;;3.83;2.03;;;8.30;75.50;;;;;;4175871;28;20119;-91
2023/01/08 00:06:57;;;;;;;7.72;2.88;;;8.10;75.50;;;;;;4196976;28;20063;-90
2023/01/08 00:09:18;;;;;;;3.90;2.08;;;8.20;75.50;;;;;;4180484;28;20108;-90
2023/01/08 00:11:39;;;;;;;7.80;2.03;;;8.20;75.40;;;;;;4174523;28;20100;-91
2023/01/08 00:14:19;;;;;;;5.45;2.30;;;8.20;75.40;;;;;;4187285;28;20661;-91
2023/01/08 00:16:40;;;;;;;6.05;2.72;;;8.20;75.50;;;;;;4173286;28;20021;-92
2023/01/08 00:19:07;;;;;;;3.95;2.40;;;8.30;75.60;;;;;;4170756;28;20059;-90
2023/01/08 00:21:30;;;;;;;5.55;2.40;;;8.20;75.50;;;;;;4181193;28;20110;-93
2023/01/08 00:23:52;;;;;;;3.55;2.15;;;8.30;75.60;;;;;;4180341;28;20037;-92
2023/01/08 00:26:13;;;;;;;4.03;2.35;;;8.20;75.60;;;;;;4176946;28;20041;-92
2023/01/08 00:28:35;;;;;;;4.07;2.53;;;8.20;75.60;;;;;;4191162;28;20038;-90
2023/01/08 00:31:00;;;;;;;3.15;2.25;;;8.20;75.70;;;;;;4180751;28;20037;-92
2023/01/08 00:33:23;;;;;;;3.22;2.38;;;8.20;75.70;;;;;;4189671;28;20443;-92
2023/01/08 00:35:44;;;;;;;7.57;2.47;;;8.30;76.00;;;;;;4175935;28;20029;-91
2023/01/08 00:38:06;;;;;;;4.68;2.33;;;8.20;75.90;;;;;;4189301;28;20040;-92
2023/01/08 00:40:27;;;;;;;4.20;2.22;;;8.20;75.80;;;;;;4185711;28;20047;-91
2023/01/08 00:42:48;;;;;;;4.38;2.45;;;8.20;76.00;;;;;;4177058;28;20028;-90
2023/01/08 00:45:09;;;;;;;3.45;1.88;;;8.20;76.00;;;;;;4187622;28;20041;-92
2023/01/08 00:47:30;;;;;;;3.75;2.03;;;8.20;76.00;;;;;;4175021;28;20044;-92
2023/01/08 00:49:52;;;;;;;6.00;2.63;;;8.20;76.20;;;;;;4185638;28;20056;-91
2023/01/08 00:52:13;;;;;;;3.75;2.22;;;8.20;76.10;;;;;;4172621;28;20196;-92
2023/01/08 00:54:36;;;;;;;3.92;2.30;;;8.20;76.10;;;;;;4186436;28;20044;-92
2023/01/08 00:56:58;;;;;;;4.35;2.33;;;8.20;76.20;;;;;;4172770;28;20660;-92
2023/01/08 00:59:19;;;;;;;4.82;2.53;;;8.20;76.20;;;;;;4181897;28;20056;-92
2023/01/08 01:01:40;;;;;;;5.72;2.25;;;8.20;76.20;;;;;;4174211;28;20030;-91
2023/01/08 01:04:04;;;;;;;4.85;2.78;;;8.20;76.20;;;;;;4175009;28;21414;-91
2023/01/08 01:06:25;;;;;;;;;;;8.20;76.20;;;;;;4176437;28;20033;-93
2023/01/08 01:08:46;;;;;;;6.45;2.22;;;8.30;76.20;;;;;;4171885;28;19960;-94
2023/01/08 01:11:22;;;;;;;5.28;2.25;;;8.30;76.20;;;;;;4175374;28;20121;-92
2023/01/08 01:13:43;;;;;;;4.10;2.33;;;8.20;76.10;;;;;;4183407;28;20036;-92
2023/01/08 01:16:04;;;;;;;4.43;2.58;;;8.20;76.20;;;;;;4188605;28;20080;-91
2023/01/08 01:18:29;;;;;;;4.75;2.20;;;8.20;76.20;;;;;;4184648;28;20044;-92
2023/01/08 01:20:50;;;;;;;3.55;2.47;;;8.20;76.30;;;;;;4172902;28;20037;-92
2023/01/08 01:23:11;;;;;;;4.57;2.50;;;8.30;76.30;;;;;;4187393;28;20036;-92
2023/01/08 01:25:36;;;;;;;7.25;2.60;;;8.30;76.30;;;;;;4180506;28;20042;-93
2023/01/08 01:27:57;;;;;;;3.47;2.50;;;8.30;76.30;;;;;;4176880;28;20037;-92
2023/01/08 01:30:18;;;;;;;3.78;2.50;;;8.30;76.30;;;;;;4186065;28;20068;-91
2023/01/08 01:32:40;;;;;;;5.38;2.50;;;8.30;76.30;;;;;;4174842;28;20032;-91
2023/01/08 01:35:02;;;;;;;5.78;2.63;;;8.30;76.30;;;;;;4189246;28;20411;-91
2023/01/08 01:37:23;;;;;;;6.63;2.53;;;8.30;76.30;;;;;;4189260;28;20735;-91
2023/01/08 01:39:45;;;;;;;4.75;2.10;;;8.30;76.20;;;;;;4176862;28;20170;-92
2023/01/08 01:42:38;;;;;;;4.72;2.50;;;8.40;76.20;;;;;;4173003;28;20072;-91
2023/01/08 01:44:51;;;;;;;3.47;2.40;;;8.40;76.20;;;;;;4185814;28;20400;-91
2023/01/08 01:47:15;;;;;;;4.50;2.67;;;8.30;76.00;;;;;;4178371;28;20040;-92
2023/01/08 01:49:38;;;;;;;6.47;2.72;;;8.30;76.10;;;;;;4186180;28;21979;-90
2023/01/08 01:52:03;;;;;;;4.22;2.65;;;8.30;76.00;;;;;;4176713;28;20021;-92
2023/01/08 01:54:24;;;;;;;4.30;2.70;;;8.30;75.90;;;;;;4174557;28;20046;-91
2023/01/08 01:56:45;;;;;;;6.15;3.25;;;8.40;75.90;;;;;;4177013;28;20512;-91
2023/01/08 01:59:06;;;;;;;5.10;2.58;;;8.40;75.90;;;;;;4175430;28;20037;-91
2023/01/08 02:01:29;;;;;;;4.22;2.63;;;8.40;75.90;;;;;;4185429;28;20138;-91
2023/01/08 02:03:50;;;;;;;4.45;2.70;;;8.30;75.80;;;;;;4172138;28;20400;-92
2023/01/08 02:06:28;;;;;;;4.53;2.58;;;8.40;75.90;;;;;;4174702;28;20029;-92
2023/01/08 02:09:04;;;;;;;5.00;3.13;;;8.40;75.90;;;;;;4192038;28;20598;-92
2023/01/08 02:11:43;;;;;;;3.97;2.55;;;8.40;75.90;;;;;;4194256;28;20040;-91
2023/01/08 02:14:15;;;;;;;4.97;2.80;;;8.40;75.80;;;;;;4197374;28;20037;-91
2023/01/08 02:16:53;;;;;;;3.45;2.38;;;8.50;75.90;;;;;;4177105;28;20061;-92
2023/01/08 02:19:36;;;;;;;3.63;2.30;;;8.40;75.80;;;;;;4174376;28;20116;-92
2023/01/08 02:22:31;;;;;;;4.40;2.50;;;8.50;75.80;;;;;;4189175;28;20086;-93
2023/01/08 02:25:06;;;;;;;4.57;2.90;;;8.40;75.70;;;;;;4188982;28;20029;-93
2023/01/08 02:27:30;;;;;;;4.00;2.70;;;8.40;75.70;;;;;;4191811;28;20064;-92
2023/01/08 02:29:52;;;;;;;4.20;2.83;;;8.40;75.80;;;;;;4180788;28;20498;-95
2023/01/08 02:32:13;;;;;;;6.47;2.58;;;8.40;75.70;;;;;;4186287;28;20037;-95
2023/01/08 02:34:35;;;;;;;4.10;2.72;;;8.40;75.90;;;;;;4184340;28;20029;-95
2023/01/08 02:37:05;;;;;;;4.20;2.58;;;8.40;75.80;;;;;;4190395;28;20466;-94
2023/01/08 02:39:51;;;;;;;4.93;2.88;;;8.50;75.70;;;;;;4208952;28;20032;-93
2023/01/08 02:42:24;;;;;;;7.40;3.05;;;8.40;75.60;;;;;;4184818;28;20029;-94
2023/01/08 02:45:05;;;;;;;5.68;3.22;;;8.40;75.60;;;;;;4204448;28;20041;-95
2023/01/08 02:47:54;;;;;;;5.47;3.28;;;8.40;75.60;;;;;;4193513;28;20153;-94
2023/01/08 02:50:39;;;;;;;5.72;3.00;;;8.50;75.60;;;;;;4188912;28;20033;-95
2023/01/08 02:53:29;;;;;;;7.60;3.42;;;8.40;75.60;;;;;;4193328;28;20032;-94
2023/01/08 02:56:39;;;;;;;6.60;2.85;;;8.40;75.70;;;;;;4193371;28;20017;-94
2023/01/08 02:59:02;;;;;;;5.68;2.83;;;8.50;75.60;;;;;;4185633;28;20497;-93
2023/01/08 03:01:28;;;;;;;5.25;3.22;;;8.40;75.70;;;;;;4180361;28;20820;-93
2023/01/08 03:04:02;;;;;;;6.22;3.05;;;8.50;75.70;;;;;;4199498;28;20052;-93
2023/01/08 03:06:24;;;;;;;4.13;2.70;;;8.40;75.70;;;;;;4186621;28;20037;-93
2023/01/08 03:08:50;;;;;;;4.63;2.60;;;8.50;75.60;;;;;;4178109;28;20425;-93
2023/01/08 03:11:14;;;;;;;5.03;2.92;;;8.50;75.60;;;;;;4187862;28;20048;-93
2023/01/08 03:13:47;;;;;;;4.38;2.65;;;8.40;75.50;;;;;;4179384;28;20052;-93
2023/01/08 03:16:27;;;;;;;6.30;3.13;;;8.40;75.40;;;;;;4175533;28;20033;-94
2023/01/08 03:19:04;;;;;;;7.35;2.90;;;8.40;75.40;;;;;;4192775;28;20039;-94
2023/01/08 03:21:26;;;;;;;8.00;3.13;;;8.50;75.40;;;;;;4183449;28;20108;-93
2023/01/08 03:23:56;;;;;;;5.40;3.00;;;8.40;75.30;;;;;;4177671;28;20039;-96
2023/01/08 03:26:31;;;;;;;5.38;2.63;;;8.40;75.30;;;;;;4176843;28;20099;-94
2023/01/08 03:29:07;;;;;;;5.50;3.00;;;8.50;75.30;;;;;;4180281;28;20034;-95
2023/01/08 03:31:54;;;;;;;4.47;2.95;;;8.40;75.20;;;;;;4185363;28;20415;-95
2023/01/08 03:34:35;;;;;;;6.05;3.45;;;8.40;75.10;;;;;;4178178;28;20723;-95
2023/01/08 03:37:01;;;;;;;4.60;2.88;;;8.40;75.00;;;;;;4198757;28;20036;-93
2023/01/08 03:40:02;;;;;;;9.15;3.33;;;8.50;75.00;;;;;;4180198;28;20100;-94
2023/01/08 03:42:27;;;;;;;4.75;2.88;;;8.40;74.80;;;;;;4197016;28;20717;-95
2023/01/08 03:45:02;;;;;;;4.85;2.90;;;8.30;74.80;;;;;;4184170;28;20045;-95
2023/01/08 03:47:24;;;;;;;4.95;3.00;;;8.30;74.70;;;;;;4199512;28;20884;-94
2023/01/08 03:49:49;;;;;;;4.50;2.80;;;8.20;74.80;;;;;;4187172;28;20102;-94
2023/01/08 03:52:29;;;;;;;4.55;2.67;;;8.20;74.70;;;;;;4211059;28;20032;-93
2023/01/08 03:55:00;;;;;;;4.38;3.08;;;8.30;74.70;;;;;;4196533;28;20036;-94
2023/01/08 03:57:24;;;;;;;8.93;3.38;;;8.20;74.70;;;;;;4180480;28;20036;-94
2023/01/08 03:59:51;;;;;;;7.53;3.28;;;8.10;74.70;;;;;;4181591;28;20041;-94
2023/01/08 04:02:18;;;;;;;4.65;3.03;;;8.20;74.80;;;;;;4182044;28;20033;-93
2023/01/08 04:04:43;;;;;;;6.53;3.50;;;8.20;74.80;;;;;;4182334;28;20043;-93
2023/01/08 04:07:05;;;;;;;6.22;2.92;;;8.10;74.90;;;;;;4178311;28;20027;-94
2023/01/08 04:09:25;;;;;;;7.25;3.17;;;8.20;75.00;;;;;;4186075;28;20029;-92
2023/01/08 04:11:46;;;;;;;5.90;3.25;;;8.20;75.00;;;;;;4196961;28;20050;-94
2023/01/08 04:14:07;;;;;;;5.13;2.95;;;8.20;75.10;;;;;;4196184;28;20039;-92
2023/01/08 04:16:28;;;;;;;5.88;3.60;;;8.20;75.20;;;;;;4197201;28;20082;-92
2023/01/08 04:18:49;;;;;;;8.35;3.80;;;8.10;76.00;;;;;;4185521;28;20057;-93
2023/01/08 04:21:10;;;;;;;4.88;3.28;;;8.10;75.30;;;;;;4186348;28;20071;-91
2023/01/08 04:23:31;;;;;;;10.20;3.25;;;8.10;75.30;;;;;;4197930;28;20021;-94
2023/01/08 04:25:53;;;;;;;7.65;3.80;;;8.20;75.40;;;;;;4185987;28;20077;-94
2023/01/08 04:28:14;;;;;;;7.05;3.53;;;8.10;75.50;;;;;;4185605;28;20279;-93
2023/01/08 04:30:36;;;;;;;4.53;3.15;;;8.20;75.60;;;;;;4196079;28;20029;-93
2023/01/08 04:32:57;;;;;;;4.75;3.05;;;8.20;75.60;;;;;;4182553;28;20033;-93
2023/01/08 04:35:18;;;;;;;9.73;3.50;;;8.20;75.70;;;;;;4184652;28;20033;-93
2023/01/08 04:37:39;;;;;;;7.05;3.90;;;8.20;75.70;;;;;;4178006;28;20032;-92
2023/01/08 04:40:00;;;;;;;7.70;4.00;;;8.30;75.70;;;;;;4187649;28;20028;-92
2023/01/08 04:42:21;;;;;;;8.02;4.50;;;8.10;75.60;;;;;;4183489;28;20417;-93
2023/01/08 04:44:42;;;;;;;7.13;4.07;;;8.20;75.60;;;;;;4178936;28;20025;-94
2023/01/08 04:47:17;;;;;;;;;;;;;;;;;;;;;
2023/01/08 04:49:42;;;;;;;6.93;3.55;;;8.10;75.50;;;;;;4202935;28;20091;-93
2023/01/08 04:52:04;;;;;;;6.90;4.10;;;8.20;75.60;;;;;;4190939;28;20119;-94
2023/01/08 04:54:25;;;;;;;7.68;3.55;;;8.10;75.60;;;;;;4184213;28;20110;-94
2023/01/08 04:56:50;;;;;;;6.53;3.22;;;8.20;75.70;;;;;;4191487;28;20705;-95
2023/01/08 04:59:11;;;;;;;5.78;3.10;;;8.20;75.70;;;;;;4188130;28;20051;-94
2023/01/08 05:01:32;;;;;;;6.95;3.75;;;8.20;75.80;;;;;;4202680;28;20055;-94
2023/01/08 05:03:56;;;;;;;5.50;3.58;;;8.20;75.80;;;;;;4209876;28;20092;-94
2023/01/08 05:06:17;;;;;;;6.20;4.00;;;8.20;75.80;;;;;;4207148;28;20082;-94
2023/01/08 05:08:38;;;;;;;6.32;3.67;;;8.20;75.90;;;;;;4195513;28;20374;-93
2023/01/08 05:10:59;;;;;;;5.13;3.40;;;8.30;75.90;;;;;;4184192;28;20029;-92
2023/01/08 05:13:20;;;;;;;10.02;3.58;;;8.20;75.80;;;;;;4182516;28;20540;-93
2023/01/08 05:15:41;;;;;;;5.65;3.20;;;8.30;76.00;;;;;;4180399;28;20035;-93
2023/01/08 05:18:04;;;;;;;9.00;3.60;;;8.30;76.00;;;;;;4193494;28;20095;-92
2023/01/08 05:20:25;;;;;;;5.93;3.60;;;8.20;75.90;;;;;;4192039;28;20092;-92
2023/01/08 05:22:47;;;;;;;7.63;3.75;;;8.20;75.90;;;;;;4197549;28;20033;-93
2023/01/08 05:25:08;;;;;;;6.05;3.80;;;8.20;76.00;;;;;;4207099;28;20091;-93
2023/01/08 05:27:35;;;;;;;6.32;3.33;;;8.20;76.00;;;;;;4186877;28;20044;-93
2023/01/08 05:30:17;;;;;;;10.93;4.47;;;8.20;76.00;;;;;;4193990;28;20048;-94
2023/01/08 05:32:38;;;;;;;9.98;4.13;;;8.10;75.80;;;;;;4212707;28;20061;-95
2023/01/08 05:34:59;;;;;;;8.95;4.70;;;8.30;76.00;;;;;;4195945;28;20040;-95
2023/01/08 05:37:20;;;;;;;9.15;5.20;;;8.20;75.90;;;;;;4187571;28;20028;-93
2023/01/08 05:39:41;;;;;;;9.43;5.10;;;8.20;75.90;;;;;;4201077;28;20563;-95
2023/01/08 05:42:10;;;;;;;12.00;5.18;;;8.20;75.90;;;;;;4190060;28;20040;-94
2023/01/08 05:44:31;;;;;;;9.82;5.18;;;8.20;76.00;;;;;;4200311;28;20123;-94
2023/01/08 05:46:53;;;;;;;15.95;6.47;;;8.20;76.00;;;;;;4182677;28;20037;-94
2023/01/08 05:49:14;;;;;;;14.05;5.85;;;8.10;76.00;;;;;;4201400;28;20028;-95
2023/01/08 05:51:35;;;;;;;11.35;6.15;;;8.10;76.00;;;;;;4200430;28;20032;-94
2023/01/08 05:54:07;;;;;;;10.35;5.78;;;8.20;76.10;;;;;;4194120;28;20057;-95
2023/01/08 05:56:36;;;;;;;12.82;5.80;;;8.10;76.10;;;;;;4207634;28;20020;-96
2023/01/08 05:59:06;;;;;;;9.88;5.47;;;8.10;76.10;;;;;;4198302;28;20029;-96
2023/01/08 06:01:35;;;;;;;10.15;5.50;;;8.10;76.20;;;;;;4210541;28;20058;-95
2023/01/08 06:04:06;;;;;;;10.00;4.65;;;8.10;76.20;;;;;;4209862;28;20025;-95
2023/01/08 06:07:03;;;;;;;8.02;3.95;;;8.10;76.20;;;;;;4201184;28;20028;-94
2023/01/08 06:09:33;;;;;;;5.57;3.92;;;8.10;76.30;;;;;;4192632;28;20495;-93
2023/01/08 06:11:56;;;;;;;8.23;4.40;;;8.00;76.20;;;;;;4185154;28;20083;-93
2023/01/08 06:14:18;;;;;;;6.15;4.20;;;8.10;76.30;;;;;;4180099;28;20145;-93
2023/01/08 06:16:42;;;;;;;9.57;4.38;;;8.10;76.30;;;;;;4180398;28;20047;-92
2023/01/08 06:19:06;;;;;;;8.48;4.85;;;8.10;76.30;;;;;;4194493;28;20036;-93
2023/01/08 06:21:27;;;;;;;9.80;5.40;;;8.10;76.40;;;;;;4200844;28;20475;-93
2023/01/08 06:23:48;;;;;;;9.45;5.53;;;8.00;76.30;;;;;;4183004;28;20028;-92
2023/01/08 06:26:09;;;;;;;8.02;5.15;;;8.00;76.30;;;;;;4184961;28;20087;-93
2023/01/08 06:28:58;;;;;;;9.20;4.32;;;8.00;76.40;;;;;;4190011;28;20025;-95
2023/01/08 06:31:22;;;;;;;7.53;4.55;;;8.00;76.40;;;;;;4183022;28;20029;-94
2023/01/08 06:33:43;;;;;;;7.30;3.92;;;7.90;76.20;;;;;;4185819;28;20052;-92
2023/01/08 06:36:11;;;;;;;9.27;4.82;;;8.00;76.30;;;;;;4196112;28;20075;-93
2023/01/08 06:38:33;;;;;;;7.05;4.40;;;8.00;76.40;;;;;;4185407;28;20017;-92
2023/01/08 06:40:57;;;;;;;6.32;4.47;;;7.90;76.30;;;;;;4190447;28;20036;-93
2023/01/08 06:43:20;;;;;;;12.32;5.00;;;8.00;76.40;;;;;;4182292;28;20100;-93
2023/01/08 06:45:52;;;;;;;11.18;4.32;;;8.00;76.40;;;;;;4184516;28;20043;-93
2023/01/08 06:48:14;;;;;;;11.20;4.85;;;7.90;76.40;;;;;;4180956;28;20040;-93
2023/01/08 06:50:47;;;;;;;9.68;4.60;;;7.90;76.40;;;;;;4198298;28;20550;-93
2023/01/08 06:53:23;;;;;;;;;;;;;;;;;;;;;
2023/01/08 06:55:54;;;;;;;6.82;4.03;;;7.90;76.50;;;;;;4194613;28;20088;-96
2023/01/08 07:01:26;;;;;;;8.90;4.68;;;7.90;76.50;;;;;;4204190;28;20040;-94
2023/01/08 07:03:48;;;;;;;7.72;3.97;;;7.90;76.50;;;;;;4198118;28;20053;-92
2023/01/08 07:06:39;;;;;;;10.15;4.55;;;7.70;76.40;;;;;;4178361;28;20146;-93
2023/01/08 07:09:00;;;;;;;6.35;4.18;;;7.80;76.60;;;;;;4193150;28;20033;-91
2023/01/08 07:14:20;;;;;;;7.18;3.90;;;7.80;76.60;;;;;;4194562;28;20732;-92
2023/01/08 07:19:27;;;;;;;6.57;3.47;;;7.80;76.60;;;;;;4188242;28;20107;-92
2023/01/08 07:21:48;;;;;;;8.85;3.50;;;7.80;76.60;;;;;;4180043;28;20037;-91
2023/01/08 07:24:17;;;;;;;8.27;3.55;;;7.80;76.60;;;;;;4179615;28;20037;-91
2023/01/08 07:26:38;;;;;;;9.95;3.55;;;7.80;76.60;;;;;;4194592;28;20028;-91
2023/01/08 07:28:59;;;;;;;5.78;3.42;;;7.80;76.70;;;;;;4174247;28;20080;-93
2023/01/08 07:31:20;;;;;;;10.02;3.58;;;7.70;76.60;;;;;;4174326;28;20110;-92
2023/01/08 07:33:42;;;;;;;15.38;3.70;;;7.80;76.70;;;;;;4177655;28;20033;-92
2023/01/08 07:36:04;;;;;;;5.63;3.00;;;7.70;76.60;;;;;;4192535;28;20025;-93
2023/01/08 07:38:26;;;;;;;7.13;2.83;;;7.70;76.60;;;;;;4176697;28;20032;-92
2023/01/08 07:40:50;;;;;;;9.60;3.35;;;7.70;76.60;;;;;;4181043;28;20039;-92
2023/01/08 07:43:11;;;;;;;9.13;3.17;;;7.70;76.60;;;;;;4175131;28;20033;-92
2023/01/08 07:45:35;;;;;;;7.75;3.08;;;7.80;76.60;;;;;;4192027;28;20067;-92
2023/01/08 07:47:57;;;;;;;7.47;2.72;;;7.70;76.50;;;;;;4179309;28;20033;-92
2023/01/08 07:50:18;;;;;;;9.68;2.90;;;7.70;76.50;;;;;;4178139;28;20111;-92
2023/01/08 07:52:42;;;;;;;6.68;2.80;;;7.80;76.60;;;;;;4182588;28;20029;-92
2023/01/08 07:55:04;;;;;;;;;;;7.60;76.40;;;;;;4176196;28;20609;-91
2023/01/08 07:57:30;;;;;;;5.85;2.42;;;7.70;76.50;;;;;;4171114;28;21469;-92
2023/01/08 07:59:51;;;;;;;9.90;2.78;;;7.80;76.40;;;;;;4190965;28;20055;-90
2023/01/08 08:02:12;;;;;;;9.98;2.22;;;7.80;76.50;;;;;;4205561;28;20021;-93
2023/01/08 08:04:36;;;;;;;7.05;2.47;;;7.70;76.50;;;;;;4195702;28;20037;-93
2023/01/08 08:06:58;;;;;;;5.53;2.20;;;7.70;76.50;;;;;;4193089;28;20033;-93
2023/01/08 08:09:25;;;;;;;8.43;2.42;;;7.70;76.50;;;;;;4201818;28;20060;-92
2023/01/08 08:11:46;;;;;;;7.30;2.15;;;7.50;76.40;;;;;;4199490;28;20033;-92
2023/01/08 08:14:15;;;;;;;8.07;2.28;;;7.70;76.60;;;;;;4185207;28;20097;-92
2023/01/08 08:16:43;;;;;;;9.52;2.22;;;7.70;76.60;;;;;;4175117;28;20295;-93
2023/01/08 08:19:07;;;;;;;4.30;1.90;;;7.60;76.60;;;;;;4174935;28;20032;-93
2023/01/08 08:21:31;;;;;;;;;;;7.70;76.60;;;;;;4192255;28;20028;-93
2023/01/08 08:24:06;;;;;;;8.98;2.25;;;7.80;76.60;;;;;;4192496;28;19986;-92
2023/01/08 08:26:30;;;;;;;8.93;2.03;;;7.70;76.50;;;;;;4177513;28;21391;-91
2023/01/08 08:28:54;;;;;;;9.63;2.10;;;7.70;76.50;;;;;;4190425;28;20033;-92
2023/01/08 08:31:15;;;;;;;;;;;7.70;76.50;;;;;;4177605;28;20043;-93
2023/01/08 08:33:36;;;;;;;10.73;2.05;;;7.70;76.40;;;;;;4194140;28;19912;-93
2023/01/08 08:36:07;;;;;;;11.65;1.95;;;7.70;76.40;;;;;;4196424;28;20470;-93
2023/01/08 08:38:32;;;;;;;7.03;2.25;;;7.70;76.40;;;;;;4184740;28;20041;-92
2023/01/08 08:41:04;;;;;;;5.53;1.90;;;7.70;76.50;;;;;;4203426;28;20055;-93
2023/01/08 08:43:27;;;;;;;7.28;1.98;;;7.70;76.50;;;;;;4196094;28;20043;-92
2023/01/08 08:45:48;;;;;;;3.15;1.63;;;7.70;76.50;;;;;;4193402;28;20044;-93
2023/01/08 08:48:10;;;;;;;8.65;1.80;;;7.70;76.60;;;;;;4172376;28;20099;-93
2023/01/08 08:53:18;;;;;;;8.80;1.60;;;7.70;76.60;;;;;;4196220;28;20045;-92
2023/01/08 08:55:42;;;;;;;4.22;1.88;;;7.90;76.80;;;;;;4189127;28;20032;-93
2023/01/08 08:58:06;;;;;;;3.63;1.83;;;7.80;76.70;;;;;;4179467;28;20036;-93
2023/01/08 09:00:27;;;;;;;;;;;7.80;76.80;;;;;;4172167;28;20032;-93
2023/01/08 09:02:55;;;;;;;5.20;2.60;;;7.90;76.80;;;;;;4188630;28;19909;-93
2023/01/08 09:05:17;;;;;;;7.45;3.53;;;7.90;76.70;;;;;;4177855;28;20048;-94
2023/01/08 09:07:38;;;;;;;7.65;4.28;;;8.00;76.80;;;;;;4179450;28;20444;-93
2023/01/08 09:09:59;;;;;;;7.75;3.78;;;7.90;76.90;;;;;;4174357;28;20037;-94
2023/01/08 09:12:20;;;;;;;8.60;4.28;;;7.90;76.90;;;;;;4181021;28;20408;-94
2023/01/08 09:14:44;;;;;;;8.65;4.47;;;8.00;77.00;;;;;;4176086;28;20530;-92
2023/01/08 09:17:06;;;;;;;5.43;3.67;;;7.90;77.00;;;;;;4193838;28;20033;-93
2023/01/08 09:19:28;;;;;;;9.32;4.38;;;8.00;77.20;;;;;;4190216;28;20442;-92
2023/01/08 09:21:50;;;;;;;10.40;4.43;;;7.90;77.10;;;;;;4176465;28;20121;-92
2023/01/08 09:24:12;;;;;;;6.43;4.28;;;8.00;77.20;;;;;;4174876;28;20041;-93
2023/01/08 09:26:33;;;;;;;7.40;4.45;;;8.00;77.20;;;;;;4192078;28;20032;-92
2023/01/08 09:28:54;;;;;;;12.93;4.40;;;8.00;77.30;;;;;;4175982;28;20083;-93
2023/01/08 09:31:16;;;;;;;9.13;4.60;;;8.00;77.30;;;;;;4191693;28;20559;-93
2023/01/08 09:33:37;;;;;;;7.72;4.45;;;7.90;77.40;;;;;;4189006;28;20109;-93
2023/01/08 09:35:58;;;;;;;7.32;3.92;;;8.00;77.50;;;;;;4175806;28;20056;-90
2023/01/08 09:38:19;;;;;;;6.63;3.95;;;8.10;77.60;;;;;;4186166;28;20033;-93
2023/01/08 09:40:48;;;;;;;7.78;4.63;;;8.00;77.50;;;;;;4196696;28;20067;-92
2023/01/08 09:43:18;;;;;;;7.90;4.88;;;8.10;77.70;;;;;;4180653;28;20466;-93
2023/01/08 09:45:40;;;;;;;8.40;3.80;;;8.10;77.70;;;;;;4178898;28;20033;-92
2023/01/08 09:48:28;;;;;;;8.13;3.83;;;8.10;77.70;;;;;;4181388;28;20052;-93
2023/01/08 09:50:49;;;;;;;7.28;4.30;;;8.10;77.90;;;;;;4184839;28;20041;-93
2023/01/08 09:53:15;;;;;;;7.72;4.53;;;8.10;77.90;;;;;;4196480;28;20558;-93
2023/01/08 09:55:44;;;;;;;7.22;4.43;;;8.10;78.00;;;;;;4197225;28;20102;-92
2023/01/08 09:58:31;;;;;;;8.80;4.43;;;8.10;78.00;;;;;;4185789;28;20017;-92
2023/01/08 10:01:01;;;;;;;7.78;4.63;;;8.10;78.30;;;;;;4180455;28;20045;-94
2023/01/08 10:03:53;;;;;;;8.50;4.30;;;8.10;78.20;;;;;;4182011;28;20532;-93
2023/01/08 10:06:16;;;;;;;6.95;4.50;;;8.10;78.30;;;;;;4192825;28;20449;-92
2023/01/08 10:08:37;;;;;;;10.73;4.13;;;8.10;78.30;;;;;;4182110;28;20148;-90
2023/01/08 10:11:02;;;;;;;5.82;3.70;;;8.20;78.40;;;;;;4193720;28;20332;-93
2023/01/08 10:13:24;;;;;;;8.38;4.28;;;8.20;78.50;;;;;;4194638;28;20331;-92
2023/01/08 10:16:06;;;;;;;8.48;4.30;;;8.20;78.50;;;;;;4188453;28;20043;-93
2023/01/08 10:21:18;;;;;;;8.57;4.13;;;8.20;78.60;;;;;;4210610;22;20450;-85
2023/01/08 10:25:56;;;;;;;6.10;4.10;;;8.20;78.70;;;;;;4183426;28;20053;-87
2023/01/08 10:28:26;;;;;;;5.90;4.07;;;8.30;78.90;;;;;;4186102;28;20036;-85
2023/01/08 10:30:50;;;;;;;5.88;3.75;;;8.20;78.80;;;;;;4182163;28;20037;-86
2023/01/08 10:33:28;;;;;;;7.38;3.92;;;8.20;78.80;;;;;;4187785;28;20033;-86
2023/01/08 10:36:02;;;;;;;9.20;4.53;;;8.30;79.10;;;;;;4182027;28;20039;-86
2023/01/08 10:38:29;;;;;;;6.40;3.58;;;8.30;79.10;;;;;;4183972;28;20214;-86
2023/01/08 10:40:54;;;;;;;8.68;4.55;;;8.30;79.10;;;;;;4178916;28;20072;-87
2023/01/08 10:43:25;;;;;;;15.02;5.13;;;8.40;79.30;;;;;;4184742;28;20068;-87
2023/01/08 10:46:20;;;;;;;15.50;4.70;;;8.30;79.20;;;;;;4184746;28;20357;-87
2023/01/08 10:48:47;;;;;;;8.35;4.88;;;8.40;79.20;;;;;;4178298;28;20159;-86
2023/01/08 10:51:17;;;;;;;9.65;4.80;;;8.40;79.10;;;;;;4177300;28;20029;-86
2023/01/08 10:53:41;;;;;;;8.95;4.78;;;8.40;79.20;;;;;;4182573;28;20099;-86
2023/01/08 10:56:03;;;;;;;;;;;8.40;79.20;;;;;;4184495;28;20432;-86
2023/01/08 10:58:30;;;;;;;9.45;4.47;;;8.40;79.70;;;;;;4179918;28;19944;-87
2023/01/08 11:00:51;;;;;;;9.45;4.50;;;8.30;79.10;;;;;;4178338;28;20056;-85
2023/01/08 11:03:30;;;;;;;7.43;4.20;;;8.50;79.20;;;;;;4182741;28;20037;-87
2023/01/08 11:05:51;;;;;;;8.73;4.60;;;8.40;79.40;;;;;;4182302;28;20032;-86
2023/01/08 11:08:16;;;;;;;9.65;4.47;;;8.40;79.40;;;;;;4173176;28;21343;-86
2023/01/08 11:10:25;;;;;;;7.13;4.28;;;8.40;79.50;;;;;;4170982;28;20035;-86
2023/01/08 11:12:39;;;;;;;7.68;4.00;;;8.50;79.60;;;;;;4176550;28;20478;-86
2023/01/08 11:14:44;;;;;;;6.85;4.30;;;8.40;79.70;;;;;;4165347;28;20025;-88
2023/01/08 11:16:45;;;;;;;7.68;3.78;;;8.50;79.80;;;;;;4181655;28;20109;-87
2023/01/08 11:18:49;;;;;;;7.93;3.70;;;8.50;79.90;;;;;;4179813;28;20074;-87
2023/01/08 11:20:51;;;;;;;9.95;3.65;;;8.60;80.10;;;;;;4179601;28;20063;-86
2023/01/08 11:23:12;;;;;;;6.53;3.77;;;8.50;80.00;;;;;;4173001;28;20047;-88
2023/01/08 11:25:19;;;;;;;9.43;4.00;;;8.50;80.20;;;;;;4174594;28;20041;-88
2023/01/08 11:27:39;;;;;;;8.52;4.03;;;8.60;80.20;;;;;;4184004;28;20025;-87
2023/01/08 11:29:56;;;;;;;5.78;3.63;;;8.60;80.30;;;;;;4170566;28;20059;-87
2023/01/08 11:32:18;;;;;;;8.93;3.80;;;8.60;80.20;;;;;;4178708;28;20033;-86
2023/01/08 11:34:29;;;;;;;6.60;3.97;;;8.60;80.80;;;;;;4162131;28;20014;-86
2023/01/08 11:36:36;;;;;;;9.35;4.28;;;8.70;80.30;;;;;;4180729;28;20021;-89
2023/01/08 11:38:37;;;;;;;7.38;3.60;;;8.70;80.30;;;;;;4176165;28;20025;-88
2023/01/08 11:41:06;;;;;;;8.25;4.30;;;8.80;80.40;;;;;;4177646;28;20056;-86
2023/01/08 11:43:19;;;;;;;6.22;3.75;;;8.70;80.30;;;;;;4173713;28;20036;-86
2023/01/08 11:45:26;;;;;;;;;;;8.80;80.40;;;;;;4175703;28;20108;-86
2023/01/08 11:47:58;;;;;;;13.27;4.57;;;8.80;80.70;;;;;;4175948;28;19913;-87
2023/01/08 11:53:23;;;;;;;8.35;4.47;;;8.70;79.80;;;;;;4175399;28;20063;-87
2023/01/08 11:55:58;;;;;;;8.52;4.13;;;8.80;79.80;;;;;;4178350;28;20031;-86
2023/01/08 11:58:05;;;;;;;10.13;4.53;;;8.80;80.00;;;;;;4155643;28;20025;-84
2023/01/08 12:00:41;;;;;;;7.53;4.25;;;8.80;79.80;;;;;;4174662;28;20136;-86
2023/01/08 12:03:01;;;;;;;8.88;4.53;;;8.80;80.00;;;;;;4172501;28;20024;-84
2023/01/08 12:05:34;;;;;;;8.77;4.32;;;8.80;80.00;;;;;;4176761;28;20088;-87
2023/01/08 12:08:04;;;;;;;8.50;3.88;;;8.80;80.00;;;;;;4170585;28;20111;-87
2023/01/08 12:10:08;;;;;;;6.68;4.38;;;8.90;80.00;;;;;;4171038;28;20124;-87
2023/01/08 12:12:39;;;;;;;6.78;3.85;;;8.90;80.00;;;;;;4175965;28;20044;-89
2023/01/08 12:15:17;;;;;;;7.32;3.80;;;8.90;80.00;;;;;;4192747;28;20028;-86
2023/01/08 12:17:36;;;;;;;10.90;4.07;;;8.90;80.00;;;;;;4193063;28;20016;-88
2023/01/08 12:20:11;;;;;;;5.32;3.35;;;8.90;79.90;;;;;;4179850;28;20020;-88
2023/01/08 12:22:31;;;;;;;10.45;3.58;;;8.90;80.00;;;;;;4180241;28;20036;-89
2023/01/08 12:25:04;;;;;;;6.53;4.00;;;8.90;80.10;;;;;;4178662;28;20156;-87
2023/01/08 12:27:41;;;;;;;6.00;3.22;;;8.90;80.20;;;;;;4173905;28;20785;-87
2023/01/08 12:29:50;;;;;;;;;;;9.00;80.20;;;;;;4163053;28;20033;-87
2023/01/08 12:31:59;;;;;;;8.32;3.65;;;8.90;80.40;;;;;;4173239;28;21803;-88
2023/01/08 12:34:29;;;;;;;12.23;3.20;;;9.00;79.90;;;;;;4173562;28;20029;-86
2023/01/08 12:36:47;;;;;;;9.50;3.45;;;9.00;79.90;;;;;;4177355;28;20036;-87
2023/01/08 12:38:57;;;;;;;10.05;3.05;;;9.00;79.60;;;;;;4172665;28;20078;-87
2023/01/08 12:41:33;;;;;;;6.93;3.00;;;9.00;79.60;;;;;;4179445;28;20029;-87
2023/01/08 12:43:49;;;;;;;7.93;3.38;;;8.90;79.50;;;;;;4157999;28;20543;-88
2023/01/08 12:46:19;;;;;;;9.07;3.30;;;8.90;79.40;;;;;;4181921;28;20055;-88
2023/01/08 12:48:31;;;;;;;12.70;3.72;;;8.90;79.30;;;;;;4176696;28;20029;-87
2023/01/08 12:51:21;;;;;;;13.45;3.70;;;8.90;79.20;;;;;;4163072;28;20105;-89
2023/01/08 12:53:42;;;;;;;5.47;2.63;;;8.90;79.30;;;;;;4147607;28;20037;-88
2023/01/08 12:56:02;;;;;;;8.73;3.08;;;8.90;79.40;;;;;;4178290;28;20036;-87
2023/01/08 12:58:22;;;;;;;9.95;2.83;;;8.90;79.60;;;;;;4188780;28;20093;-88
2023/01/08 13:00:42;;;;;;;8.15;3.15;;;8.90;80.00;;;;;;4156940;28;20033;-85
2023/01/08 13:03:10;;;;;;;5.82;2.60;;;9.00;80.00;;;;;;4147958;28;20040;-87
2023/01/08 13:05:19;;;;;;;9.77;2.70;;;9.00;79.90;;;;;;4176085;28;20029;-88
2023/01/08 13:07:26;;;;;;;5.60;2.17;;;9.00;79.70;;;;;;4174009;28;20392;-89
2023/01/08 13:09:29;;;;;;;8.70;2.50;;;9.00;79.40;;;;;;4156929;28;21836;-88